createdAt,value
2022-10-05T00:01:23.053Z,100712.38
2022-10-05T00:03:51.195Z,100715.50
2022-10-05T00:06:19.155Z,100721.84
2022-10-05T00:08:47.158Z,100714.41
2022-10-05T00:11:15.633Z,100717.53
2022-10-05T00:13:43.635Z,100708.25
2022-10-05T00:16:16.232Z,100722.69
2022-10-05T00:18:47.319Z,100724.53
2022-10-05T00:21:19.651Z,100716.75
2022-10-05T00:23:47.626Z,100706.09
2022-10-05T00:26:18.005Z,100721.28
2022-10-05T00:28:45.995Z,100724.13
2022-10-05T00:31:18.090Z,100721.84
2022-10-05T00:33:47.635Z,100728.06
2022-10-05T00:36:15.611Z,100717.59
2022-10-05T00:38:43.601Z,100728.72
2022-10-05T00:41:14.052Z,100735.19
2022-10-05T00:44:04.472Z,100740.50
2022-10-05T00:46:34.988Z,100736.63
2022-10-05T00:49:06.833Z,100731.19
2022-10-05T00:51:35.702Z,100735.72
2022-10-05T00:54:12.596Z,100739.41
2022-10-05T00:57:06.555Z,100740.78
2022-10-05T00:59:42.816Z,100736.19
2022-10-05T01:02:13.439Z,100737.19
2022-10-05T01:04:45.494Z,100722.34
2022-10-05T01:07:17.278Z,100755.34
2022-10-05T01:09:48.501Z,100759.34
2022-10-05T01:12:19.528Z,100768.72
2022-10-05T01:14:51.362Z,100761.94
2022-10-05T01:17:22.264Z,100758.06
2022-10-05T01:20:12.187Z,100769.63
2022-10-05T01:22:49.335Z,100770.22
2022-10-05T01:25:23.023Z,100776.16
2022-10-05T01:27:59.013Z,100770.00
2022-10-05T01:30:27.057Z,100779.03
2022-10-05T01:32:56.510Z,100787.56
2022-10-05T01:35:32.158Z,100784.16
2022-10-05T01:38:06.288Z,100767.72
2022-10-05T01:40:37.290Z,100787.34
2022-10-05T01:43:10.118Z,100786.50
2022-10-05T01:45:44.250Z,100796.09
2022-10-05T01:48:15.614Z,100798.94
2022-10-05T01:50:48.962Z,100796.69
2022-10-05T01:53:22.703Z,100796.31
2022-10-05T01:55:53.795Z,100791.94
2022-10-05T01:58:24.449Z,100798.56
2022-10-05T02:00:56.167Z,100794.78
2022-10-05T02:03:26.395Z,100807.19
2022-10-05T02:05:55.774Z,100801.84
2022-10-05T02:08:27.003Z,100802.13
2022-10-05T02:10:59.522Z,100809.75
2022-10-05T02:13:32.196Z,100810.03
2022-10-05T02:16:01.405Z,100797.91
2022-10-05T02:18:31.639Z,100819.34
2022-10-05T02:20:59.629Z,100818.22
2022-10-05T02:23:29.689Z,100817.66
2022-10-05T02:25:57.742Z,100819.78
2022-10-05T02:28:28.532Z,100820.75
2022-10-05T02:31:01.921Z,100819.22
2022-10-05T02:33:31.118Z,100830.06
2022-10-05T02:36:02.041Z,100822.16
2022-10-05T02:38:34.885Z,100821.34
2022-10-05T02:41:05.958Z,100819.34
2022-10-05T02:43:40.419Z,100818.50
2022-10-05T02:46:14.603Z,100820.34
2022-10-05T02:48:45.506Z,100796.53
2022-10-05T02:51:17.481Z,100816.53
2022-10-05T02:53:51.152Z,100821.91
2022-10-05T02:56:22.745Z,100812.16
2022-10-05T02:58:54.839Z,100825.41
2022-10-05T03:01:25.805Z,100810.91
2022-10-05T03:03:59.548Z,100795.41
2022-10-05T03:06:28.749Z,100817.13
2022-10-05T03:08:59.496Z,100839.53
2022-10-05T03:11:30.618Z,100835.16
2022-10-05T03:14:03.006Z,100846.59
2022-10-05T03:16:41.134Z,100846.88
2022-10-05T03:19:16.852Z,100808.09
2022-10-05T03:21:52.540Z,100840.53
2022-10-05T03:24:37.414Z,100848.44
2022-10-05T03:27:09.676Z,100850.38
2022-10-05T03:29:41.528Z,100854.06
2022-10-05T03:32:18.724Z,100839.94
2022-10-05T03:34:47.654Z,100854.63
2022-10-05T03:37:17.230Z,100864.50
2022-10-05T03:39:47.681Z,100870.72
2022-10-05T03:42:19.206Z,100869.03
2022-10-05T03:44:50.295Z,100859.00
2022-10-05T03:47:25.378Z,100848.09
2022-10-05T03:50:00.039Z,100872.41
2022-10-05T03:52:29.641Z,100878.03
2022-10-05T03:54:58.902Z,100879.41
2022-10-05T03:57:27.698Z,100881.53
2022-10-05T04:00:00.163Z,100865.31
2022-10-05T04:02:30.408Z,100883.34
2022-10-05T04:05:01.584Z,100891.13
2022-10-05T04:07:35.157Z,100894.19
2022-10-05T04:10:03.501Z,100882.50
2022-10-05T04:12:34.337Z,100873.59
2022-10-05T04:15:04.758Z,100898.28
2022-10-05T04:17:36.154Z,100908.44
2022-10-05T04:20:05.023Z,100909.53
2022-10-05T04:22:35.360Z,100917.19
2022-10-05T04:25:06.311Z,100910.03
2022-10-05T04:27:35.867Z,100910.47
2022-10-05T04:30:08.253Z,100928.25
2022-10-05T04:32:39.184Z,100927.69
2022-10-05T04:35:22.416Z,100928.53
2022-10-05T04:37:54.283Z,100921.09
2022-10-05T04:40:31.199Z,100945.53
2022-10-05T04:43:05.096Z,100944.00
2022-10-05T04:45:38.012Z,100955.97
2022-10-05T04:48:44.672Z,100966.97
2022-10-05T04:51:20.034Z,100961.94
2022-10-05T04:53:49.586Z,100962.91
2022-10-05T04:56:20.176Z,100974.31
2022-10-05T04:59:00.883Z,100967.00
2022-10-05T05:01:48.877Z,100963.00
2022-10-05T05:04:40.984Z,100967.13
2022-10-05T05:07:16.211Z,100963.47
2022-10-05T05:10:08.605Z,100966.91
2022-10-05T05:12:40.900Z,100970.31
2022-10-05T05:15:24.280Z,100973.38
2022-10-05T05:18:02.365Z,100980.31
2022-10-05T05:20:37.463Z,100983.91
2022-10-05T05:23:07.469Z,100983.25
2022-10-05T05:25:39.575Z,101003.16
2022-10-05T05:28:18.044Z,101002.31
2022-10-05T05:30:49.607Z,100994.44
2022-10-05T05:33:22.113Z,101006.25
2022-10-05T05:36:23.402Z,101007.94
2022-10-05T05:38:55.970Z,101009.25
2022-10-05T05:41:27.631Z,100972.97
2022-10-05T05:44:09.994Z,101009.25
2022-10-05T05:47:02.302Z,101011.94
2022-10-05T05:49:31.509Z,101017.38
2022-10-05T05:52:02.346Z,101025.50
2022-10-05T05:54:32.467Z,101024.72
2022-10-05T05:57:04.378Z,101010.38
2022-10-05T05:59:42.740Z,101029.44
2022-10-05T06:02:11.962Z,101037.06
2022-10-05T06:04:41.430Z,101024.75
2022-10-05T06:07:15.012Z,101028.06
2022-10-05T06:09:44.865Z,101021.66
2022-10-05T06:12:15.305Z,101038.66
2022-10-05T06:14:44.899Z,101024.09
2022-10-05T06:17:15.134Z,101016.97
2022-10-05T06:19:43.111Z,101029.72
2022-10-05T06:22:16.671Z,101017.66
2022-10-05T06:24:48.867Z,101033.59
2022-10-05T06:27:26.453Z,101036.25
2022-10-05T06:30:04.273Z,101041.44
2022-10-05T06:32:34.493Z,101041.31
2022-10-05T06:35:08.003Z,101043.81
2022-10-05T06:37:56.142Z,101041.00
2022-10-05T06:40:29.206Z,101044.31
2022-10-05T06:43:16.788Z,101047.56
2022-10-05T06:45:54.040Z,101039.34
2022-10-05T06:48:27.048Z,101026.84
2022-10-05T06:50:57.051Z,101050.97
2022-10-05T06:53:30.523Z,101060.16
2022-10-05T06:56:01.409Z,101059.69
2022-10-05T06:58:48.866Z,101041.31
2022-10-05T07:01:20.150Z,101052.91
2022-10-05T07:03:55.688Z,101071.94
2022-10-05T07:06:25.919Z,101065.91
2022-10-05T07:09:07.565Z,101076.16
2022-10-05T07:11:49.061Z,101085.72
2022-10-05T07:14:25.058Z,101080.47
2022-10-05T07:17:01.671Z,101081.03
2022-10-05T07:19:34.205Z,101084.59
2022-10-05T07:22:23.957Z,101067.66
2022-10-05T07:24:58.675Z,101074.31
2022-10-05T07:27:26.992Z,101076.63
2022-10-05T07:29:59.006Z,101076.94
2022-10-05T07:32:33.773Z,101072.84
2022-10-05T07:35:05.933Z,101070.16
2022-10-05T07:37:55.321Z,101068.41
2022-10-05T07:40:26.959Z,101062.72
2022-10-05T07:43:03.347Z,101066.22
2022-10-05T07:45:33.057Z,101054.94
2022-10-05T07:48:03.849Z,101059.03
2022-10-05T07:50:39.280Z,101055.78
2022-10-05T07:53:12.236Z,101061.59
2022-10-05T07:55:44.432Z,101057.38
2022-10-05T07:58:17.015Z,101056.91
2022-10-05T08:00:59.532Z,101043.53
2022-10-05T08:03:31.467Z,101066.25
2022-10-05T08:05:59.550Z,101072.84
2022-10-05T08:08:29.635Z,101076.69
2022-10-05T08:11:00.728Z,101059.22
2022-10-05T08:13:31.464Z,101079.00
2022-10-05T08:16:00.358Z,101071.94
2022-10-05T08:18:41.123Z,101076.75
2022-10-05T08:21:12.113Z,101089.31
2022-10-05T08:23:42.476Z,101065.34
2022-10-05T08:26:17.599Z,101043.75
2022-10-05T08:28:50.957Z,101077.81
2022-10-05T08:31:21.150Z,101078.47
2022-10-05T08:33:56.473Z,101082.88
2022-10-05T08:36:29.933Z,101084.94
2022-10-05T08:38:59.272Z,101086.19
2022-10-05T08:44:49.129Z,101074.72
2022-10-05T08:47:21.022Z,101077.88
2022-10-05T08:50:03.135Z,101087.16
2022-10-05T08:52:31.372Z,101089.63
2022-10-05T08:55:21.317Z,101088.06
2022-10-05T08:57:59.868Z,101059.53
2022-10-05T09:00:31.339Z,101080.41
2022-10-05T09:03:42.423Z,101088.88
2022-10-05T09:06:55.358Z,101077.47
2022-10-05T09:09:32.985Z,101054.28
2022-10-05T09:12:16.424Z,101081.59
2022-10-05T09:15:01.539Z,101082.84
2022-10-05T09:17:46.886Z,101080.13
2022-10-05T09:20:19.133Z,101086.75
2022-10-05T09:23:07.013Z,101087.25
2022-10-05T09:25:43.479Z,101082.28
2022-10-05T09:28:22.003Z,101086.19
2022-10-05T09:31:07.314Z,101085.91
2022-10-05T09:33:47.591Z,101047.28
2022-10-05T09:37:04.108Z,101073.59
2022-10-05T09:40:07.678Z,101072.81
2022-10-05T09:43:09.237Z,101068.78
2022-10-05T09:45:59.980Z,101060.81
2022-10-05T09:49:06.559Z,101052.88
2022-10-05T09:52:09.467Z,101062.56
2022-10-05T09:55:05.558Z,101066.13
2022-10-05T09:57:59.596Z,101052.50
2022-10-05T10:00:34.576Z,101074.34
2022-10-05T10:03:44.031Z,101072.47
2022-10-05T10:06:22.700Z,101073.25
2022-10-05T10:09:11.217Z,101087.47
2022-10-05T10:11:44.968Z,101079.09
2022-10-05T10:14:19.456Z,101079.91
2022-10-05T10:17:00.248Z,101078.44
2022-10-05T10:19:53.278Z,101076.38
2022-10-05T10:22:37.592Z,101046.41
2022-10-05T10:25:52.024Z,101063.19
2022-10-05T10:28:37.864Z,101064.69
2022-10-05T10:31:37.025Z,101060.06
2022-10-05T10:34:23.322Z,101062.75
2022-10-05T10:37:08.358Z,101059.28
2022-10-05T10:39:45.266Z,101049.94
2022-10-05T10:42:26.194Z,101020.81
2022-10-05T10:45:03.212Z,101046.97
2022-10-05T10:47:39.970Z,101042.00
2022-10-05T10:50:29.467Z,101042.25
2022-10-05T10:53:17.191Z,101042.75
2022-10-05T10:55:48.985Z,101034.38
2022-10-05T10:58:39.837Z,101037.13
2022-10-05T11:01:13.456Z,101030.53
2022-10-05T11:04:22.462Z,101015.53
2022-10-05T11:07:05.081Z,100998.25
2022-10-05T11:10:01.045Z,101000.78
2022-10-05T11:13:08.431Z,101018.72
2022-10-05T11:15:53.466Z,101003.88
2022-10-05T11:18:22.097Z,101001.97
2022-10-05T11:21:04.247Z,101005.50
2022-10-05T11:24:07.674Z,100991.19
2022-10-05T11:26:59.758Z,100991.75
2022-10-05T11:29:49.351Z,100997.34
2022-10-05T11:32:56.720Z,100981.00
2022-10-05T11:35:48.503Z,100975.69
2022-10-05T11:38:37.859Z,100975.75
2022-10-05T11:41:23.974Z,100975.75
2022-10-05T11:44:06.162Z,100990.44
2022-10-05T11:46:39.264Z,100993.75
2022-10-05T11:49:34.937Z,100992.78
2022-10-05T11:52:09.995Z,100992.75
2022-10-05T11:55:09.147Z,100989.06
2022-10-05T11:57:35.034Z,100984.06
2022-10-05T12:00:07.170Z,100976.88
2022-10-05T12:03:01.110Z,100977.16
2022-10-05T12:05:32.512Z,100977.28
2022-10-05T12:08:11.375Z,100979.22
2022-10-05T12:10:43.052Z,100975.22
2022-10-05T12:13:20.049Z,100978.53
2022-10-05T12:15:51.325Z,100971.28
2022-10-05T12:18:23.138Z,100970.25
2022-10-05T12:20:53.402Z,100972.06
2022-10-05T12:23:23.304Z,100934.13
2022-10-05T12:25:53.905Z,100977.91
2022-10-05T12:28:23.970Z,100976.03
2022-10-05T12:30:58.646Z,100981.06
2022-10-05T12:33:28.680Z,100985.13
2022-10-05T12:35:58.441Z,100983.66
2022-10-05T12:38:28.601Z,100978.44
2022-10-05T12:41:01.904Z,100976.22
2022-10-05T12:43:32.234Z,100984.66
2022-10-05T12:46:04.458Z,100964.09
2022-10-05T12:48:56.197Z,100977.97
2022-10-05T12:51:29.040Z,100976.31
2022-10-05T12:53:58.464Z,100968.34
2022-10-05T12:56:35.524Z,100968.31
2022-10-05T12:59:07.137Z,100965.81
2022-10-05T13:01:39.770Z,100959.06
2022-10-05T13:04:19.197Z,100950.47
2022-10-05T13:06:50.272Z,100945.03
2022-10-05T13:09:19.874Z,100931.81
2022-10-05T13:11:49.302Z,100939.34
2022-10-05T13:14:23.726Z,100927.41
2022-10-05T13:16:55.313Z,100926.75
2022-10-05T13:19:35.760Z,100933.47
2022-10-05T13:22:11.081Z,100926.75
2022-10-05T13:24:41.769Z,100933.03
2022-10-05T13:27:14.124Z,100920.88
2022-10-05T13:29:45.610Z,100929.25
2022-10-05T13:32:16.375Z,100929.28
2022-10-05T13:34:50.025Z,100926.78
2022-10-05T13:37:20.133Z,100916.69
2022-10-05T13:39:56.305Z,100917.53
2022-10-05T13:42:29.460Z,100929.28
2022-10-05T13:44:59.202Z,100926.38
2022-10-05T13:47:31.577Z,100921.28
2022-10-05T13:50:03.337Z,100938.31
2022-10-05T13:52:37.029Z,100945.22
2022-10-05T13:55:12.214Z,100940.38
2022-10-05T13:57:46.139Z,100939.72
2022-10-05T14:00:22.622Z,100938.69
2022-10-05T14:02:56.426Z,100904.88
2022-10-05T14:05:26.942Z,100936.16
2022-10-05T14:07:56.525Z,100931.53
2022-10-05T14:10:33.962Z,100936.78
2022-10-05T14:13:02.959Z,100938.88
2022-10-05T14:15:32.380Z,100935.97
2022-10-05T14:18:00.368Z,100933.22
2022-10-05T14:20:31.119Z,100930.06
2022-10-05T14:23:00.748Z,100930.88
2022-10-05T14:25:29.265Z,100916.78
2022-10-05T14:28:03.089Z,100919.13
2022-10-05T14:30:31.238Z,100931.25
2022-10-05T14:33:07.251Z,100930.81
2022-10-05T14:35:49.024Z,100923.63
2022-10-05T14:38:21.646Z,100929.84
2022-10-05T14:41:04.429Z,100916.13
2022-10-05T14:43:32.372Z,100927.66
2022-10-05T14:46:01.485Z,100933.88
2022-10-05T14:48:30.448Z,100936.78
2022-10-05T14:51:03.401Z,100926.50
2022-10-05T14:53:39.153Z,100934.00
2022-10-05T14:56:36.850Z,100929.09
2022-10-05T14:59:19.947Z,100931.91
2022-10-05T15:01:53.989Z,100889.34
2022-10-05T15:04:29.431Z,100935.22
2022-10-05T15:07:07.088Z,100917.28
2022-10-05T15:09:45.135Z,100944.47
2022-10-05T15:12:13.365Z,100936.81
2022-10-05T15:14:42.814Z,100942.16
2022-10-05T15:17:15.197Z,100937.47
2022-10-05T15:19:46.904Z,100935.25
2022-10-05T15:22:23.240Z,100940.69
2022-10-05T15:24:57.934Z,100948.94
2022-10-05T15:27:29.221Z,100943.59
2022-10-05T15:30:04.496Z,100915.28
2022-10-05T15:32:50.992Z,100946.91
2022-10-05T15:35:42.569Z,100926.50
2022-10-05T15:38:21.988Z,100943.38
2022-10-05T15:40:59.068Z,100956.84
2022-10-05T15:43:27.574Z,100956.66
2022-10-05T15:46:01.191Z,100959.81
2022-10-05T15:48:36.052Z,100947.44
2022-10-05T15:51:07.205Z,100955.97
2022-10-05T15:53:39.317Z,100968.28
2022-10-05T15:56:08.486Z,100961.81
2022-10-05T15:58:43.762Z,100965.09
2022-10-05T16:01:12.655Z,100943.97
2022-10-05T16:03:59.725Z,100970.03
2022-10-05T16:06:52.401Z,100981.25
2022-10-05T16:09:42.505Z,100979.31
2022-10-05T16:12:23.273Z,100982.75
2022-10-05T16:14:59.833Z,100990.88
2022-10-05T16:17:37.056Z,100992.28
2022-10-05T16:20:14.754Z,100977.47
2022-10-05T16:22:47.437Z,100989.31
2022-10-05T16:25:22.234Z,100991.53
2022-10-05T16:28:02.997Z,100971.44
2022-10-05T16:30:40.356Z,101005.72
2022-10-05T16:33:12.047Z,101003.22
2022-10-05T16:35:44.399Z,101011.31
2022-10-05T16:38:18.844Z,101012.03
2022-10-05T16:40:51.833Z,101013.72
2022-10-05T16:43:27.541Z,101016.41
2022-10-05T16:46:01.742Z,101009.66
2022-10-05T16:48:30.809Z,101017.75
2022-10-05T16:51:19.420Z,101025.34
2022-10-05T16:53:51.406Z,101026.84
2022-10-05T16:56:22.230Z,101013.97
2022-10-05T16:58:57.604Z,101025.13
2022-10-05T17:01:31.875Z,101029.16
2022-10-05T17:04:07.123Z,101028.44
2022-10-05T17:06:41.044Z,101028.44
2022-10-05T17:09:24.903Z,101032.50
2022-10-05T17:12:03.589Z,101017.63
2022-10-05T17:14:37.532Z,101035.69
2022-10-05T17:17:25.694Z,101036.50
2022-10-05T17:20:00.659Z,101041.22
2022-10-05T17:22:30.344Z,101039.88
2022-10-05T17:25:02.177Z,101030.91
2022-10-05T17:27:35.781Z,101037.13
2022-10-05T17:30:38.914Z,101038.47
2022-10-05T17:33:24.887Z,101031.03
2022-10-05T17:36:12.364Z,101032.81
2022-10-05T17:38:51.009Z,101029.47
2022-10-05T17:41:23.222Z,101012.69
2022-10-05T17:44:21.438Z,101040.38
2022-10-05T17:46:50.225Z,101046.06
2022-10-05T17:49:47.884Z,101049.44
2022-10-05T17:52:40.013Z,101054.44
2022-10-05T17:55:39.321Z,101055.09
2022-10-05T17:59:00.759Z,101063.81
2022-10-05T18:01:31.502Z,101071.66
2022-10-05T18:04:38.043Z,101067.44
2022-10-05T18:07:16.770Z,101065.69
2022-10-05T18:10:01.585Z,101061.63
2022-10-05T18:12:44.195Z,101072.19
2022-10-05T18:15:48.678Z,101072.75
2022-10-05T18:18:56.495Z,101080.78
2022-10-05T18:21:44.399Z,101069.78
2022-10-05T18:24:34.516Z,101078.31
2022-10-05T18:27:37.632Z,101087.59
2022-10-05T18:30:14.806Z,101088.88
2022-10-05T18:33:24.145Z,101087.66
2022-10-05T18:35:57.788Z,101093.50
2022-10-05T18:38:34.559Z,101101.88
2022-10-05T18:41:04.880Z,101103.88
2022-10-05T18:43:36.862Z,101110.56
2022-10-05T18:46:22.134Z,101103.78
2022-10-05T18:48:56.201Z,101116.56
2022-10-05T18:51:28.118Z,101115.16
2022-10-05T18:54:04.693Z,101118.84
2022-10-05T18:56:35.825Z,101115.63
2022-10-05T18:59:10.296Z,101114.06
2022-10-05T19:01:51.225Z,101106.44
2022-10-05T19:04:23.912Z,101117.75
2022-10-05T19:06:55.738Z,101101.13
2022-10-05T19:09:34.802Z,101105.91
2022-10-05T19:12:04.973Z,101113.44
2022-10-05T19:14:35.495Z,101116.41
2022-10-05T19:17:14.273Z,101107.81
2022-10-05T19:19:53.236Z,101084.41
2022-10-05T19:22:27.612Z,101117.88
2022-10-05T19:25:09.509Z,101111.69
2022-10-05T19:27:40.175Z,101120.75
2022-10-05T19:30:19.557Z,101119.38
2022-10-05T19:33:05.853Z,101116.25
2022-10-05T19:35:35.375Z,101114.56
2022-10-05T19:38:15.669Z,101116.53
2022-10-05T19:40:48.313Z,101101.28
2022-10-05T19:43:24.663Z,101115.88
2022-10-05T19:45:58.563Z,101095.25
2022-10-05T19:48:29.373Z,101109.06
2022-10-05T19:50:59.091Z,101093.44
2022-10-05T19:53:27.823Z,101106.69
2022-10-05T19:55:57.147Z,101106.69
2022-10-05T19:58:26.197Z,101110.38
2022-10-05T20:00:58.963Z,101106.53
2022-10-05T20:03:30.377Z,101109.22
2022-10-05T20:05:58.993Z,101105.00
2022-10-05T20:08:27.833Z,101108.13
2022-10-05T20:11:21.768Z,101112.38
2022-10-05T20:14:19.450Z,101116.06
2022-10-05T20:17:04.970Z,101086.13
2022-10-05T20:19:56.921Z,101112.25
2022-10-05T20:22:33.062Z,101120.91
2022-10-05T20:25:02.306Z,101121.88
2022-10-05T20:27:47.609Z,101122.88
2022-10-05T20:30:16.923Z,101122.88
2022-10-05T20:32:45.673Z,101121.22
2022-10-05T20:35:15.793Z,101119.50
2022-10-05T20:37:43.831Z,101120.50
2022-10-05T20:40:12.252Z,101113.31
2022-10-05T20:42:40.254Z,101130.81
2022-10-05T20:45:11.219Z,101122.91
2022-10-05T20:47:39.192Z,101127.47
2022-10-05T20:50:09.121Z,101129.97
2022-10-05T20:52:37.684Z,101126.88
2022-10-05T20:55:05.924Z,101130.28
2022-10-05T20:57:33.943Z,101133.66
2022-10-05T21:00:01.951Z,101138.22
2022-10-05T21:02:31.249Z,101138.22
2022-10-05T21:04:59.200Z,101135.94
2022-10-05T21:07:27.256Z,101146.84
2022-10-05T21:09:55.757Z,101150.50
2022-10-05T21:12:23.760Z,101140.19
2022-10-05T21:14:52.751Z,101145.84
2022-10-05T21:17:21.275Z,101148.97
2022-10-05T21:19:50.663Z,101146.81
2022-10-05T21:22:18.594Z,101151.09
2022-10-05T21:24:46.812Z,101142.44
2022-10-05T21:27:14.821Z,101133.84
2022-10-05T21:29:44.137Z,101138.50
2022-10-05T21:32:12.433Z,101138.06
2022-10-05T21:34:40.655Z,101133.72
2022-10-05T21:37:10.061Z,101140.75
2022-10-05T21:39:38.026Z,101136.41
2022-10-05T21:42:06.114Z,101137.53
2022-10-05T21:44:34.071Z,101132.00
2022-10-05T21:47:02.136Z,101140.06
2022-10-05T21:49:30.094Z,101096.66
2022-10-05T21:51:58.103Z,101134.25
2022-10-05T21:54:28.727Z,101130.59
2022-10-05T21:56:57.175Z,101119.97
2022-10-05T21:59:27.907Z,101137.38
2022-10-05T22:01:55.883Z,101131.72
2022-10-05T22:04:23.873Z,101132.00
2022-10-05T22:06:51.841Z,101130.59
2022-10-05T22:09:19.794Z,101122.13
2022-10-05T22:11:49.403Z,101124.09
2022-10-05T22:14:17.374Z,101124.34
2022-10-05T22:16:45.518Z,101113.91
2022-10-05T22:19:15.581Z,101094.53
2022-10-05T22:21:43.488Z,101108.81
2022-10-05T22:24:11.678Z,101105.41
2022-10-05T22:26:39.943Z,101113.34
2022-10-05T22:29:09.714Z,101100.06
2022-10-05T22:31:37.701Z,101100.06
2022-10-05T22:34:05.816Z,101104.56
2022-10-05T22:36:35.116Z,101098.66
2022-10-05T22:39:03.137Z,101097.22
2022-10-05T22:41:31.212Z,101109.94
2022-10-05T22:43:59.174Z,101094.94
2022-10-05T22:46:28.609Z,101092.97
2022-10-05T22:48:56.650Z,101096.78
2022-10-05T22:51:24.658Z,101103.16
2022-10-05T22:53:52.627Z,101094.66
2022-10-05T22:56:20.667Z,101111.03
2022-10-05T22:58:48.645Z,101101.16
2022-10-05T23:01:17.226Z,101091.56
2022-10-05T23:03:46.698Z,101100.28
2022-10-05T23:06:15.977Z,101105.97
2022-10-05T23:08:44.365Z,101102.28
2022-10-05T23:11:13.200Z,101105.97
2022-10-05T23:13:41.555Z,101105.97
2022-10-05T23:16:10.630Z,101102.56
2022-10-05T23:18:38.638Z,101096.91
2022-10-05T23:21:08.662Z,101101.97
2022-10-05T23:23:37.096Z,101083.31
2022-10-05T23:26:05.249Z,101088.69
2022-10-05T23:28:33.749Z,101095.72
2022-10-05T23:31:02.298Z,101090.66
2022-10-05T23:33:30.408Z,101086.84
2022-10-05T23:35:59.570Z,101081.63
2022-10-05T23:38:29.670Z,101089.78
2022-10-05T23:40:58.697Z,101091.03
2022-10-05T23:43:26.861Z,101083.41
2022-10-05T23:45:54.874Z,101076.63
2022-10-05T23:48:22.970Z,101078.28
2022-10-05T23:50:51.147Z,101073.34
2022-10-05T23:53:19.079Z,101084.88
2022-10-05T23:55:50.392Z,101078.34
2022-10-05T23:58:18.601Z,101077.44
